sensor_id;sensor_type;location;lat;lon;timestamp;temperature;humidity
23499;DHT22;11926;48.120;11.562;2023-07-31T00:00:17;18.40;89.80
23499;DHT22;11926;48.120;11.562;2023-07-31T00:03:06;18.30;90.20
23499;DHT22;11926;48.120;11.562;2023-07-31T00:05:54;18.20;90.30
23499;DHT22;11926;48.120;11.562;2023-07-31T00:08:42;18.20;90.40
23499;DHT22;11926;48.120;11.562;2023-07-31T00:11:31;18.00;90.60
23499;DHT22;11926;48.120;11.562;2023-07-31T00:14:19;18.00;90.80
23499;DHT22;11926;48.120;11.562;2023-07-31T00:17:07;17.90;91.00
23499;DHT22;11926;48.120;11.562;2023-07-31T00:19:57;17.70;91.20
23499;DHT22;11926;48.120;11.562;2023-07-31T00:22:45;17.70;91.50
23499;DHT22;11926;48.120;11.562;2023-07-31T00:25:33;17.60;91.70
23499;DHT22;11926;48.120;11.562;2023-07-31T00:28:22;17.50;91.90
23499;DHT22;11926;48.120;11.562;2023-07-31T00:31:10;17.50;92.10
23499;DHT22;11926;48.120;11.562;2023-07-31T00:33:58;17.50;92.20
23499;DHT22;11926;48.120;11.562;2023-07-31T00:36:48;17.50;92.30
23499;DHT22;11926;48.120;11.562;2023-07-31T00:39:36;17.40;92.30
23499;DHT22;11926;48.120;11.562;2023-07-31T00:42:25;17.40;92.20
23499;DHT22;11926;48.120;11.562;2023-07-31T00:45:13;17.40;92.40
23499;DHT22;11926;48.120;11.562;2023-07-31T00:48:02;17.30;92.60
23499;DHT22;11926;48.120;11.562;2023-07-31T00:50:53;17.30;92.70
23499;DHT22;11926;48.120;11.562;2023-07-31T00:53:43;17.20;92.90
23499;DHT22;11926;48.120;11.562;2023-07-31T00:56:35;17.10;93.00
23499;DHT22;11926;48.120;11.562;2023-07-31T00:59:24;17.10;93.10
23499;DHT22;11926;48.120;11.562;2023-07-31T01:02:12;17.10;93.20
23499;DHT22;11926;48.120;11.562;2023-07-31T01:05:01;17.00;93.30
23499;DHT22;11926;48.120;11.562;2023-07-31T01:07:55;17.00;93.50
23499;DHT22;11926;48.120;11.562;2023-07-31T01:10:50;17.00;93.60
23499;DHT22;11926;48.120;11.562;2023-07-31T01:13:43;17.00;93.60
23499;DHT22;11926;48.120;11.562;2023-07-31T01:16:32;17.00;93.80
23499;DHT22;11926;48.120;11.562;2023-07-31T01:19:23;17.00;93.80
23499;DHT22;11926;48.120;11.562;2023-07-31T01:22:23;17.00;94.00
23499;DHT22;11926;48.120;11.562;2023-07-31T01:25:26;17.00;94.00
23499;DHT22;11926;48.120;11.562;2023-07-31T01:28:25;17.10;94.10
23499;DHT22;11926;48.120;11.562;2023-07-31T01:31:20;17.10;94.10
23499;DHT22;11926;48.120;11.562;2023-07-31T01:34:10;17.10;94.20
23499;DHT22;11926;48.120;11.562;2023-07-31T01:36:59;17.20;94.30
23499;DHT22;11926;48.120;11.562;2023-07-31T01:39:47;17.20;94.40
23499;DHT22;11926;48.120;11.562;2023-07-31T01:42:35;17.20;94.30
23499;DHT22;11926;48.120;11.562;2023-07-31T01:45:25;17.20;94.20
23499;DHT22;11926;48.120;11.562;2023-07-31T01:48:14;17.20;94.20
23499;DHT22;11926;48.120;11.562;2023-07-31T01:51:02;17.20;94.30
23499;DHT22;11926;48.120;11.562;2023-07-31T01:53:51;17.20;94.40
23499;DHT22;11926;48.120;11.562;2023-07-31T01:56:39;17.20;94.50
23499;DHT22;11926;48.120;11.562;2023-07-31T01:59:28;17.20;94.50
23499;DHT22;11926;48.120;11.562;2023-07-31T02:02:18;17.30;94.60
23499;DHT22;11926;48.120;11.562;2023-07-31T02:05:06;17.30;95.00
23499;DHT22;11926;48.120;11.562;2023-07-31T02:07:56;17.30;94.60
23499;DHT22;11926;48.120;11.562;2023-07-31T02:10:46;17.30;94.80
23499;DHT22;11926;48.120;11.562;2023-07-31T02:13:34;17.30;94.70
23499;DHT22;11926;48.120;11.562;2023-07-31T02:16:23;17.30;94.80
23499;DHT22;11926;48.120;11.562;2023-07-31T02:19:12;17.40;94.90
23499;DHT22;11926;48.120;11.562;2023-07-31T02:22:01;17.40;94.90
23499;DHT22;11926;48.120;11.562;2023-07-31T02:24:50;17.40;95.00
23499;DHT22;11926;48.120;11.562;2023-07-31T02:27:40;17.40;95.00
23499;DHT22;11926;48.120;11.562;2023-07-31T02:30:29;17.40;95.00
23499;DHT22;11926;48.120;11.562;2023-07-31T02:33:18;17.40;95.10
23499;DHT22;11926;48.120;11.562;2023-07-31T02:36:07;17.50;95.10
23499;DHT22;11926;48.120;11.562;2023-07-31T02:38:56;17.50;94.90
23499;DHT22;11926;48.120;11.562;2023-07-31T02:41:45;17.50;95.10
23499;DHT22;11926;48.120;11.562;2023-07-31T02:44:34;17.50;95.00
23499;DHT22;11926;48.120;11.562;2023-07-31T02:47:22;17.40;95.00
23499;DHT22;11926;48.120;11.562;2023-07-31T02:50:11;17.40;95.10
23499;DHT22;11926;48.120;11.562;2023-07-31T02:53:01;17.40;95.10
23499;DHT22;11926;48.120;11.562;2023-07-31T02:55:49;17.30;95.10
23499;DHT22;11926;48.120;11.562;2023-07-31T02:58:37;17.20;95.10
23499;DHT22;11926;48.120;11.562;2023-07-31T03:01:26;17.10;95.10
23499;DHT22;11926;48.120;11.562;2023-07-31T03:04:15;17.00;95.20
23499;DHT22;11926;48.120;11.562;2023-07-31T03:07:04;16.90;95.10
23499;DHT22;11926;48.120;11.562;2023-07-31T03:09:55;16.80;95.40
23499;DHT22;11926;48.120;11.562;2023-07-31T03:12:46;16.80;95.60
23499;DHT22;11926;48.120;11.562;2023-07-31T03:15:35;16.70;95.70
23499;DHT22;11926;48.120;11.562;2023-07-31T03:18:24;16.70;95.80
23499;DHT22;11926;48.120;11.562;2023-07-31T03:21:12;16.60;95.80
23499;DHT22;11926;48.120;11.562;2023-07-31T03:24:01;16.50;95.80
23499;DHT22;11926;48.120;11.562;2023-07-31T03:26:50;16.50;95.90
23499;DHT22;11926;48.120;11.562;2023-07-31T03:29:39;16.40;95.90
23499;DHT22;11926;48.120;11.562;2023-07-31T03:32:29;16.30;96.10
23499;DHT22;11926;48.120;11.562;2023-07-31T03:35:17;16.30;96.20
23499;DHT22;11926;48.120;11.562;2023-07-31T03:38:06;16.30;96.30
23499;DHT22;11926;48.120;11.562;2023-07-31T03:40:58;16.30;96.50
23499;DHT22;11926;48.120;11.562;2023-07-31T03:43:51;16.20;96.60
23499;DHT22;11926;48.120;11.562;2023-07-31T03:46:39;16.20;96.60
23499;DHT22;11926;48.120;11.562;2023-07-31T03:49:29;16.20;96.60
23499;DHT22;11926;48.120;11.562;2023-07-31T03:52:17;16.20;96.70
23499;DHT22;11926;48.120;11.562;2023-07-31T03:55:06;16.10;96.70
23499;DHT22;11926;48.120;11.562;2023-07-31T03:57:54;16.10;96.80
23499;DHT22;11926;48.120;11.562;2023-07-31T04:00:44;16.10;97.00
23499;DHT22;11926;48.120;11.562;2023-07-31T04:03:32;16.00;97.00
23499;DHT22;11926;48.120;11.562;2023-07-31T04:06:20;16.00;97.10
23499;DHT22;11926;48.120;11.562;2023-07-31T04:09:09;16.00;97.20
23499;DHT22;11926;48.120;11.562;2023-07-31T04:11:58;16.00;97.30
23499;DHT22;11926;48.120;11.562;2023-07-31T04:14:46;16.00;97.40
23499;DHT22;11926;48.120;11.562;2023-07-31T04:17:36;16.00;97.50
23499;DHT22;11926;48.120;11.562;2023-07-31T04:20:26;16.00;97.50
23499;DHT22;11926;48.120;11.562;2023-07-31T04:23:15;16.10;97.50
23499;DHT22;11926;48.120;11.562;2023-07-31T04:26:03;16.10;97.60
23499;DHT22;11926;48.120;11.562;2023-07-31T04:28:51;16.10;97.60
23499;DHT22;11926;48.120;11.562;2023-07-31T04:31:39;16.10;97.60
23499;DHT22;11926;48.120;11.562;2023-07-31T04:34:29;16.10;97.60
23499;DHT22;11926;48.120;11.562;2023-07-31T04:37:18;16.10;97.70
23499;DHT22;11926;48.120;11.562;2023-07-31T04:40:06;16.10;97.80
23499;DHT22;11926;48.120;11.562;2023-07-31T04:42:55;16.10;97.90
23499;DHT22;11926;48.120;11.562;2023-07-31T04:45:45;16.20;97.90
23499;DHT22;11926;48.120;11.562;2023-07-31T04:48:35;16.10;97.80
23499;DHT22;11926;48.120;11.562;2023-07-31T04:51:27;16.10;97.90
23499;DHT22;11926;48.120;11.562;2023-07-31T04:54:17;16.20;98.00
23499;DHT22;11926;48.120;11.562;2023-07-31T04:57:06;16.20;98.20
23499;DHT22;11926;48.120;11.562;2023-07-31T04:59:55;16.20;98.20
23499;DHT22;11926;48.120;11.562;2023-07-31T05:02:43;16.30;98.40
23499;DHT22;11926;48.120;11.562;2023-07-31T05:05:32;16.40;98.30
23499;DHT22;11926;48.120;11.562;2023-07-31T05:08:22;16.50;98.20
23499;DHT22;11926;48.120;11.562;2023-07-31T05:11:10;16.70;98.30
23499;DHT22;11926;48.120;11.562;2023-07-31T05:13:58;16.80;98.20
23499;DHT22;11926;48.120;11.562;2023-07-31T05:16:47;17.00;98.10
23499;DHT22;11926;48.120;11.562;2023-07-31T05:19:35;17.20;97.80
23499;DHT22;11926;48.120;11.562;2023-07-31T05:22:24;17.40;97.50
23499;DHT22;11926;48.120;11.562;2023-07-31T05:25:13;17.50;97.20
23499;DHT22;11926;48.120;11.562;2023-07-31T05:28:02;17.70;97.00
23499;DHT22;11926;48.120;11.562;2023-07-31T05:30:51;17.90;96.90
23499;DHT22;11926;48.120;11.562;2023-07-31T05:33:39;18.10;96.50
23499;DHT22;11926;48.120;11.562;2023-07-31T05:36:28;18.30;96.20
23499;DHT22;11926;48.120;11.562;2023-07-31T05:39:16;18.50;95.60
23499;DHT22;11926;48.120;11.562;2023-07-31T05:42:07;18.70;94.80
23499;DHT22;11926;48.120;11.562;2023-07-31T05:44:56;18.90;94.60
23499;DHT22;11926;48.120;11.562;2023-07-31T05:47:45;19.10;94.00
23499;DHT22;11926;48.120;11.562;2023-07-31T05:50:34;19.30;93.60
23499;DHT22;11926;48.120;11.562;2023-07-31T05:53:25;19.50;93.10
23499;DHT22;11926;48.120;11.562;2023-07-31T05:56:14;19.60;93.20
23499;DHT22;11926;48.120;11.562;2023-07-31T05:59:04;19.70;92.20
23499;DHT22;11926;48.120;11.562;2023-07-31T06:01:53;19.80;92.00
23499;DHT22;11926;48.120;11.562;2023-07-31T06:04:41;19.90;91.60
23499;DHT22;11926;48.120;11.562;2023-07-31T06:07:30;20.00;91.30
23499;DHT22;11926;48.120;11.562;2023-07-31T06:10:20;20.00;91.60
23499;DHT22;11926;48.120;11.562;2023-07-31T06:13:09;20.20;91.20
23499;DHT22;11926;48.120;11.562;2023-07-31T06:16:00;20.30;90.50
23499;DHT22;11926;48.120;11.562;2023-07-31T06:18:51;20.50;90.40
23499;DHT22;11926;48.120;11.562;2023-07-31T06:21:41;20.70;90.00
23499;DHT22;11926;48.120;11.562;2023-07-31T06:24:35;20.80;89.10
23499;DHT22;11926;48.120;11.562;2023-07-31T06:27:24;20.90;88.20
23499;DHT22;11926;48.120;11.562;2023-07-31T06:30:13;21.00;87.60
23499;DHT22;11926;48.120;11.562;2023-07-31T06:33:02;21.10;87.00
23499;DHT22;11926;48.120;11.562;2023-07-31T06:35:51;21.20;86.60
23499;DHT22;11926;48.120;11.562;2023-07-31T06:38:39;21.20;85.90
23499;DHT22;11926;48.120;11.562;2023-07-31T06:41:29;21.20;85.60
23499;DHT22;11926;48.120;11.562;2023-07-31T06:44:20;21.20;85.90
23499;DHT22;11926;48.120;11.562;2023-07-31T06:47:08;21.30;85.10
23499;DHT22;11926;48.120;11.562;2023-07-31T06:49:58;21.40;84.50
23499;DHT22;11926;48.120;11.562;2023-07-31T06:52:46;21.40;83.80
23499;DHT22;11926;48.120;11.562;2023-07-31T06:55:35;21.60;83.50
23499;DHT22;11926;48.120;11.562;2023-07-31T06:58:24;21.80;83.60
23499;DHT22;11926;48.120;11.562;2023-07-31T07:01:12;21.90;82.60
23499;DHT22;11926;48.120;11.562;2023-07-31T07:04:01;22.00;82.10
23499;DHT22;11926;48.120;11.562;2023-07-31T07:06:51;22.10;81.60
23499;DHT22;11926;48.120;11.562;2023-07-31T07:09:39;22.10;81.00
23499;DHT22;11926;48.120;11.562;2023-07-31T07:12:30;22.10;80.40
23499;DHT22;11926;48.120;11.562;2023-07-31T07:15:19;22.10;80.10
23499;DHT22;11926;48.120;11.562;2023-07-31T07:18:07;22.20;79.40
23499;DHT22;11926;48.120;11.562;2023-07-31T07:20:57;22.30;78.80
23499;DHT22;11926;48.120;11.562;2023-07-31T07:23:47;22.40;78.40
23499;DHT22;11926;48.120;11.562;2023-07-31T07:26:36;22.60;78.00
23499;DHT22;11926;48.120;11.562;2023-07-31T07:29:25;22.80;77.70
23499;DHT22;11926;48.120;11.562;2023-07-31T07:32:14;23.00;77.10
23499;DHT22;11926;48.120;11.562;2023-07-31T07:35:02;23.10;75.90
23499;DHT22;11926;48.120;11.562;2023-07-31T07:37:51;23.20;74.80
23499;DHT22;11926;48.120;11.562;2023-07-31T07:40:41;23.20;74.90
23499;DHT22;11926;48.120;11.562;2023-07-31T07:43:31;23.40;74.30
23499;DHT22;11926;48.120;11.562;2023-07-31T07:46:20;23.70;74.10
23499;DHT22;11926;48.120;11.562;2023-07-31T07:49:10;24.00;72.70
23499;DHT22;11926;48.120;11.562;2023-07-31T07:51:58;24.10;71.60
23499;DHT22;11926;48.120;11.562;2023-07-31T07:54:47;24.40;72.20
23499;DHT22;11926;48.120;11.562;2023-07-31T07:57:42;25.00;70.40
23499;DHT22;11926;48.120;11.562;2023-07-31T08:00:32;25.20;69.60
23499;DHT22;11926;48.120;11.562;2023-07-31T08:03:20;25.50;69.40
23499;DHT22;11926;48.120;11.562;2023-07-31T08:06:09;26.10;67.40
23499;DHT22;11926;48.120;11.562;2023-07-31T08:08:58;27.10;64.90
23499;DHT22;11926;48.120;11.562;2023-07-31T08:11:52;28.00;61.80
23499;DHT22;11926;48.120;11.562;2023-07-31T08:14:54;29.20;59.70
23499;DHT22;11926;48.120;11.562;2023-07-31T08:17:44;30.50;57.30
23499;DHT22;11926;48.120;11.562;2023-07-31T08:20:32;31.00;56.40
23499;DHT22;11926;48.120;11.562;2023-07-31T08:23:20;31.30;53.50
23499;DHT22;11926;48.120;11.562;2023-07-31T08:26:15;30.70;53.50
23499;DHT22;11926;48.120;11.562;2023-07-31T08:29:03;30.10;54.40
23499;DHT22;11926;48.120;11.562;2023-07-31T08:31:53;29.70;54.50
23499;DHT22;11926;48.120;11.562;2023-07-31T08:34:42;29.30;55.70
23499;DHT22;11926;48.120;11.562;2023-07-31T08:37:31;28.90;55.30
23499;DHT22;11926;48.120;11.562;2023-07-31T08:40:20;28.30;56.30
23499;DHT22;11926;48.120;11.562;2023-07-31T08:43:09;27.70;57.20
23499;DHT22;11926;48.120;11.562;2023-07-31T08:46:00;27.30;57.60
23499;DHT22;11926;48.120;11.562;2023-07-31T08:48:51;26.90;58.30
23499;DHT22;11926;48.120;11.562;2023-07-31T08:51:41;26.30;58.90
23499;DHT22;11926;48.120;11.562;2023-07-31T08:54:32;26.00;60.00
23499;DHT22;11926;48.120;11.562;2023-07-31T08:57:21;25.70;61.30
23499;DHT22;11926;48.120;11.562;2023-07-31T09:00:11;25.50;61.10
23499;DHT22;11926;48.120;11.562;2023-07-31T09:03:02;25.10;62.70
23499;DHT22;11926;48.120;11.562;2023-07-31T09:05:56;24.80;64.10
23499;DHT22;11926;48.120;11.562;2023-07-31T09:08:46;24.70;64.70
23499;DHT22;11926;48.120;11.562;2023-07-31T09:11:34;24.70;65.20
23499;DHT22;11926;48.120;11.562;2023-07-31T09:14:25;24.80;65.70
23499;DHT22;11926;48.120;11.562;2023-07-31T09:17:13;25.30;65.00
23499;DHT22;11926;48.120;11.562;2023-07-31T09:20:14;26.00;63.30
23499;DHT22;11926;48.120;11.562;2023-07-31T09:23:08;26.70;62.00
23499;DHT22;11926;48.120;11.562;2023-07-31T09:25:57;27.60;60.90
23499;DHT22;11926;48.120;11.562;2023-07-31T09:28:47;28.70;58.10
23499;DHT22;11926;48.120;11.562;2023-07-31T09:31:39;29.20;56.10
23499;DHT22;11926;48.120;11.562;2023-07-31T09:34:36;29.70;55.90
23499;DHT22;11926;48.120;11.562;2023-07-31T09:37:25;30.20;54.90
23499;DHT22;11926;48.120;11.562;2023-07-31T09:40:28;30.40;53.50
23499;DHT22;11926;48.120;11.562;2023-07-31T09:43:19;30.30;52.80
23499;DHT22;11926;48.120;11.562;2023-07-31T09:46:14;30.70;52.90
23499;DHT22;11926;48.120;11.562;2023-07-31T09:49:07;31.00;51.80
23499;DHT22;11926;48.120;11.562;2023-07-31T09:51:55;31.90;51.90
23499;DHT22;11926;48.120;11.562;2023-07-31T09:54:43;32.00;51.00
23499;DHT22;11926;48.120;11.562;2023-07-31T09:57:34;31.70;51.20
23499;DHT22;11926;48.120;11.562;2023-07-31T10:00:26;32.50;52.00
23499;DHT22;11926;48.120;11.562;2023-07-31T10:03:16;33.70;49.20
23499;DHT22;11926;48.120;11.562;2023-07-31T10:06:06;34.20;47.00
23499;DHT22;11926;48.120;11.562;2023-07-31T10:08:57;34.50;42.80
23499;DHT22;11926;48.120;11.562;2023-07-31T10:11:51;34.60;41.80
23499;DHT22;11926;48.120;11.562;2023-07-31T10:14:46;34.00;41.40
23499;DHT22;11926;48.120;11.562;2023-07-31T10:17:36;33.50;42.20
23499;DHT22;11926;48.120;11.562;2023-07-31T10:20:25;33.00;42.40
23499;DHT22;11926;48.120;11.562;2023-07-31T10:23:19;32.40;43.40
23499;DHT22;11926;48.120;11.562;2023-07-31T10:26:08;32.00;44.50
23499;DHT22;11926;48.120;11.562;2023-07-31T10:28:58;31.60;45.20
23499;DHT22;11926;48.120;11.562;2023-07-31T10:31:51;31.40;44.50
23499;DHT22;11926;48.120;11.562;2023-07-31T10:34:40;31.10;44.60
23499;DHT22;11926;48.120;11.562;2023-07-31T10:37:30;30.90;46.30
23499;DHT22;11926;48.120;11.562;2023-07-31T10:40:27;30.80;46.40
23499;DHT22;11926;48.120;11.562;2023-07-31T10:43:24;30.70;45.40
23499;DHT22;11926;48.120;11.562;2023-07-31T10:46:14;30.60;45.80
23499;DHT22;11926;48.120;11.562;2023-07-31T10:49:04;30.40;46.30
23499;DHT22;11926;48.120;11.562;2023-07-31T10:51:56;30.20;46.30
23499;DHT22;11926;48.120;11.562;2023-07-31T10:54:45;30.00;47.80
23499;DHT22;11926;48.120;11.562;2023-07-31T10:57:36;29.60;46.60
23499;DHT22;11926;48.120;11.562;2023-07-31T11:00:27;29.30;46.40
23499;DHT22;11926;48.120;11.562;2023-07-31T11:03:17;29.00;46.80
23499;DHT22;11926;48.120;11.562;2023-07-31T11:06:09;28.80;47.60
23499;DHT22;11926;48.120;11.562;2023-07-31T11:09:03;28.70;48.20
23499;DHT22;11926;48.120;11.562;2023-07-31T11:11:54;28.80;48.30
23499;DHT22;11926;48.120;11.562;2023-07-31T11:14:42;28.70;49.20
23499;DHT22;11926;48.120;11.562;2023-07-31T11:17:31;28.70;49.50
23499;DHT22;11926;48.120;11.562;2023-07-31T11:20:19;28.70;50.30
23499;DHT22;11926;48.120;11.562;2023-07-31T11:23:11;28.90;51.30
23499;DHT22;11926;48.120;11.562;2023-07-31T11:26:00;29.10;49.70
23499;DHT22;11926;48.120;11.562;2023-07-31T11:28:50;29.10;49.30
23499;DHT22;11926;48.120;11.562;2023-07-31T11:31:43;29.10;50.40
23499;DHT22;11926;48.120;11.562;2023-07-31T11:34:31;29.20;50.00
23499;DHT22;11926;48.120;11.562;2023-07-31T11:37:19;29.00;49.40
23499;DHT22;11926;48.120;11.562;2023-07-31T11:40:10;28.80;48.90
23499;DHT22;11926;48.120;11.562;2023-07-31T11:43:03;28.80;48.20
23499;DHT22;11926;48.120;11.562;2023-07-31T11:45:57;28.60;48.50
23499;DHT22;11926;48.120;11.562;2023-07-31T11:48:46;28.50;48.50
23499;DHT22;11926;48.120;11.562;2023-07-31T11:51:36;28.40;50.10
23499;DHT22;11926;48.120;11.562;2023-07-31T11:54:24;28.50;50.00
23499;DHT22;11926;48.120;11.562;2023-07-31T11:57:14;28.60;50.00
23499;DHT22;11926;48.120;11.562;2023-07-31T12:00:05;28.60;49.70
23499;DHT22;11926;48.120;11.562;2023-07-31T12:02:55;28.50;50.10
23499;DHT22;11926;48.120;11.562;2023-07-31T12:05:45;28.50;49.80
23499;DHT22;11926;48.120;11.562;2023-07-31T12:08:37;28.40;49.50
23499;DHT22;11926;48.120;11.562;2023-07-31T12:11:25;28.40;50.20
23499;DHT22;11926;48.120;11.562;2023-07-31T12:14:25;28.40;49.00
23499;DHT22;11926;48.120;11.562;2023-07-31T12:17:16;28.30;48.80
23499;DHT22;11926;48.120;11.562;2023-07-31T12:20:05;28.30;49.50
23499;DHT22;11926;48.120;11.562;2023-07-31T12:22:57;28.50;49.90
23499;DHT22;11926;48.120;11.562;2023-07-31T12:25:46;28.70;50.50
23499;DHT22;11926;48.120;11.562;2023-07-31T12:28:36;28.90;48.90
23499;DHT22;11926;48.120;11.562;2023-07-31T12:31:28;29.10;48.80
23499;DHT22;11926;48.120;11.562;2023-07-31T12:34:20;29.30;48.90
23499;DHT22;11926;48.120;11.562;2023-07-31T12:37:10;29.30;48.20
23499;DHT22;11926;48.120;11.562;2023-07-31T12:39:58;29.20;47.70
23499;DHT22;11926;48.120;11.562;2023-07-31T12:43:04;29.20;48.20
23499;DHT22;11926;48.120;11.562;2023-07-31T12:45:53;29.10;47.20
23499;DHT22;11926;48.120;11.562;2023-07-31T12:48:43;29.00;47.80
23499;DHT22;11926;48.120;11.562;2023-07-31T12:51:33;29.00;48.30
23499;DHT22;11926;48.120;11.562;2023-07-31T12:54:21;29.10;50.00
23499;DHT22;11926;48.120;11.562;2023-07-31T12:57:10;29.20;50.00
23499;DHT22;11926;48.120;11.562;2023-07-31T12:59:59;29.40;49.90
23499;DHT22;11926;48.120;11.562;2023-07-31T13:02:47;29.50;48.50
23499;DHT22;11926;48.120;11.562;2023-07-31T13:05:37;29.60;47.80
23499;DHT22;11926;48.120;11.562;2023-07-31T13:08:28;29.50;46.70
23499;DHT22;11926;48.120;11.562;2023-07-31T13:11:16;29.50;46.90
23499;DHT22;11926;48.120;11.562;2023-07-31T13:14:04;29.40;47.90
23499;DHT22;11926;48.120;11.562;2023-07-31T13:16:53;29.40;48.50
23499;DHT22;11926;48.120;11.562;2023-07-31T13:19:42;29.50;48.10
23499;DHT22;11926;48.120;11.562;2023-07-31T13:22:33;29.40;47.40
23499;DHT22;11926;48.120;11.562;2023-07-31T13:25:22;29.30;47.80
23499;DHT22;11926;48.120;11.562;2023-07-31T13:28:10;29.30;46.90
23499;DHT22;11926;48.120;11.562;2023-07-31T13:30:59;29.10;46.60
23499;DHT22;11926;48.120;11.562;2023-07-31T13:33:48;29.10;47.30
23499;DHT22;11926;48.120;11.562;2023-07-31T13:36:36;29.10;47.30
23499;DHT22;11926;48.120;11.562;2023-07-31T13:39:28;29.10;47.30
23499;DHT22;11926;48.120;11.562;2023-07-31T13:42:16;29.40;48.80
23499;DHT22;11926;48.120;11.562;2023-07-31T13:45:06;29.50;47.40
23499;DHT22;11926;48.120;11.562;2023-07-31T13:47:54;29.70;48.00
23499;DHT22;11926;48.120;11.562;2023-07-31T13:50:43;29.80;47.30
23499;DHT22;11926;48.120;11.562;2023-07-31T13:53:31;29.90;47.80
23499;DHT22;11926;48.120;11.562;2023-07-31T13:56:22;29.90;47.80
23499;DHT22;11926;48.120;11.562;2023-07-31T13:59:11;29.90;47.40
23499;DHT22;11926;48.120;11.562;2023-07-31T14:02:03;29.90;46.90
23499;DHT22;11926;48.120;11.562;2023-07-31T14:04:52;29.80;47.10
23499;DHT22;11926;48.120;11.562;2023-07-31T14:07:40;29.80;47.10
23499;DHT22;11926;48.120;11.562;2023-07-31T14:10:29;29.80;47.80
23499;DHT22;11926;48.120;11.562;2023-07-31T14:13:19;30.00;46.60
23499;DHT22;11926;48.120;11.562;2023-07-31T14:16:08;30.00;45.30
23499;DHT22;11926;48.120;11.562;2023-07-31T14:18:57;29.80;45.20
23499;DHT22;11926;48.120;11.562;2023-07-31T14:21:46;29.70;45.80
23499;DHT22;11926;48.120;11.562;2023-07-31T14:24:55;29.60;46.40
23499;DHT22;11926;48.120;11.562;2023-07-31T14:27:43;29.50;46.80
23499;DHT22;11926;48.120;11.562;2023-07-31T14:30:34;29.40;46.50
23499;DHT22;11926;48.120;11.562;2023-07-31T14:33:22;29.40;47.20
23499;DHT22;11926;48.120;11.562;2023-07-31T14:36:11;29.30;46.90
23499;DHT22;11926;48.120;11.562;2023-07-31T14:39:00;29.30;46.90
23499;DHT22;11926;48.120;11.562;2023-07-31T14:41:48;29.40;47.00
23499;DHT22;11926;48.120;11.562;2023-07-31T14:44:38;29.40;46.80
23499;DHT22;11926;48.120;11.562;2023-07-31T14:47:29;29.30;47.60
23499;DHT22;11926;48.120;11.562;2023-07-31T14:50:20;29.30;47.90
23499;DHT22;11926;48.120;11.562;2023-07-31T14:53:08;29.10;47.70
23499;DHT22;11926;48.120;11.562;2023-07-31T14:56:01;28.90;47.60
23499;DHT22;11926;48.120;11.562;2023-07-31T14:58:50;28.70;47.80
23499;DHT22;11926;48.120;11.562;2023-07-31T15:01:39;28.60;48.50
23499;DHT22;11926;48.120;11.562;2023-07-31T15:04:29;28.60;48.10
23499;DHT22;11926;48.120;11.562;2023-07-31T15:07:18;28.70;48.00
23499;DHT22;11926;48.120;11.562;2023-07-31T15:10:08;28.70;48.20
23499;DHT22;11926;48.120;11.562;2023-07-31T15:12:56;28.70;48.50
23499;DHT22;11926;48.120;11.562;2023-07-31T15:15:45;28.70;48.90
23499;DHT22;11926;48.120;11.562;2023-07-31T15:18:35;28.70;49.20
23499;DHT22;11926;48.120;11.562;2023-07-31T15:21:25;28.50;48.90
23499;DHT22;11926;48.120;11.562;2023-07-31T15:24:14;28.40;48.90
23499;DHT22;11926;48.120;11.562;2023-07-31T15:27:06;28.40;49.70
23499;DHT22;11926;48.120;11.562;2023-07-31T15:29:55;28.30;49.80
23499;DHT22;11926;48.120;11.562;2023-07-31T15:32:45;28.30;49.80
23499;DHT22;11926;48.120;11.562;2023-07-31T15:35:35;28.20;49.50
23499;DHT22;11926;48.120;11.562;2023-07-31T15:38:29;28.10;49.60
23499;DHT22;11926;48.120;11.562;2023-07-31T15:41:17;28.00;49.40
23499;DHT22;11926;48.120;11.562;2023-07-31T15:44:08;27.90;49.30
23499;DHT22;11926;48.120;11.562;2023-07-31T15:46:57;27.70;50.50
23499;DHT22;11926;48.120;11.562;2023-07-31T15:49:45;27.60;50.20
23499;DHT22;11926;48.120;11.562;2023-07-31T15:52:34;27.60;51.30
23499;DHT22;11926;48.120;11.562;2023-07-31T15:55:24;27.50;51.40
23499;DHT22;11926;48.120;11.562;2023-07-31T15:58:13;27.40;51.90
23499;DHT22;11926;48.120;11.562;2023-07-31T16:01:01;27.40;52.20
23499;DHT22;11926;48.120;11.562;2023-07-31T16:03:50;27.30;52.60
23499;DHT22;11926;48.120;11.562;2023-07-31T16:06:39;27.20;53.00
23499;DHT22;11926;48.120;11.562;2023-07-31T16:09:29;27.20;52.60
23499;DHT22;11926;48.120;11.562;2023-07-31T16:12:18;27.10;52.60
23499;DHT22;11926;48.120;11.562;2023-07-31T16:15:08;27.10;53.40
23499;DHT22;11926;48.120;11.562;2023-07-31T16:17:56;27.10;54.50
23499;DHT22;11926;48.120;11.562;2023-07-31T16:20:45;27.00;54.30
23499;DHT22;11926;48.120;11.562;2023-07-31T16:23:33;27.00;54.60
23499;DHT22;11926;48.120;11.562;2023-07-31T16:26:22;26.90;54.70
23499;DHT22;11926;48.120;11.562;2023-07-31T16:29:12;26.90;54.40
23499;DHT22;11926;48.120;11.562;2023-07-31T16:32:01;26.80;54.50
23499;DHT22;11926;48.120;11.562;2023-07-31T16:34:49;26.70;54.80
23499;DHT22;11926;48.120;11.562;2023-07-31T16:37:38;26.60;54.90
23499;DHT22;11926;48.120;11.562;2023-07-31T16:40:26;26.50;54.70
23499;DHT22;11926;48.120;11.562;2023-07-31T16:43:15;26.30;55.80
23499;DHT22;11926;48.120;11.562;2023-07-31T16:46:06;26.20;55.40
23499;DHT22;11926;48.120;11.562;2023-07-31T16:48:54;26.00;55.70
23499;DHT22;11926;48.120;11.562;2023-07-31T16:51:46;25.90;55.90
23499;DHT22;11926;48.120;11.562;2023-07-31T16:54:35;25.80;56.90
23499;DHT22;11926;48.120;11.562;2023-07-31T16:57:23;25.70;56.70
23499;DHT22;11926;48.120;11.562;2023-07-31T17:00:13;25.70;56.90
23499;DHT22;11926;48.120;11.562;2023-07-31T17:03:04;25.60;57.00
23499;DHT22;11926;48.120;11.562;2023-07-31T17:05:53;25.50;57.10
23499;DHT22;11926;48.120;11.562;2023-07-31T17:08:42;25.50;57.70
23499;DHT22;11926;48.120;11.562;2023-07-31T17:11:30;25.50;57.60
23499;DHT22;11926;48.120;11.562;2023-07-31T17:14:19;25.40;57.70
23499;DHT22;11926;48.120;11.562;2023-07-31T17:17:08;25.40;58.00
23499;DHT22;11926;48.120;11.562;2023-07-31T17:23:29;25.30;58.50
23499;DHT22;11926;48.120;11.562;2023-07-31T17:26:19;25.30;58.80
23499;DHT22;11926;48.120;11.562;2023-07-31T17:29:10;25.20;58.80
23499;DHT22;11926;48.120;11.562;2023-07-31T17:31:59;25.30;60.00
23499;DHT22;11926;48.120;11.562;2023-07-31T17:34:47;25.20;60.00
23499;DHT22;11926;48.120;11.562;2023-07-31T17:37:35;25.20;59.40